sensor_id;sensor_type;location;lat;lon;timestamp;temperature;humidity
26575;DHT22;67165;50.256;10.978;2023-02-01T00:17:19;2.90;98.00
26575;DHT22;67165;50.256;10.978;2023-02-01T00:19:44;3.00;98.00
26575;DHT22;67165;50.256;10.978;2023-02-01T00:22:10;3.00;98.00
26575;DHT22;67165;50.256;10.978;2023-02-01T00:24:35;3.10;98.00
26575;DHT22;67165;50.256;10.978;2023-02-01T00:27:01;3.10;98.00
26575;DHT22;67165;50.256;10.978;2023-02-01T00:29:27;3.10;98.00
26575;DHT22;67165;50.256;10.978;2023-02-01T00:31:52;3.10;98.00
26575;DHT22;67165;50.256;10.978;2023-02-01T00:34:19;3.20;98.00
26575;DHT22;67165;50.256;10.978;2023-02-01T00:36:45;3.20;98.00
26575;DHT22;67165;50.256;10.978;2023-02-01T00:39:12;3.30;98.00
26575;DHT22;67165;50.256;10.978;2023-02-01T00:41:38;3.30;98.00
26575;DHT22;67165;50.256;10.978;2023-02-01T00:44:04;3.20;98.00
26575;DHT22;67165;50.256;10.978;2023-02-01T00:46:30;3.40;98.00
26575;DHT22;67165;50.256;10.978;2023-02-01T00:48:55;3.50;98.00
26575;DHT22;67165;50.256;10.978;2023-02-01T00:51:24;3.50;98.00
26575;DHT22;67165;50.256;10.978;2023-02-01T00:53:50;3.50;98.00
26575;DHT22;67165;50.256;10.978;2023-02-01T03:38:04;3.50;98.00
26575;DHT22;67165;50.256;10.978;2023-02-01T03:40:36;3.50;98.00
26575;DHT22;67165;50.256;10.978;2023-02-01T03:43:04;3.50;98.00
26575;DHT22;67165;50.256;10.978;2023-02-01T03:45:42;3.50;98.00
26575;DHT22;67165;50.256;10.978;2023-02-01T03:48:09;3.50;98.00
26575;DHT22;67165;50.256;10.978;2023-02-01T03:50:43;3.40;98.00
26575;DHT22;67165;50.256;10.978;2023-02-01T03:53:17;3.50;98.00
26575;DHT22;67165;50.256;10.978;2023-02-01T03:55:45;3.50;98.00
26575;DHT22;67165;50.256;10.978;2023-02-01T03:58:18;3.50;98.00
26575;DHT22;67165;50.256;10.978;2023-02-01T04:00:54;3.50;98.00
26575;DHT22;67165;50.256;10.978;2023-02-01T04:03:21;3.60;98.00
26575;DHT22;67165;50.256;10.978;2023-02-01T04:05:48;3.50;98.00
26575;DHT22;67165;50.256;10.978;2023-02-01T04:08:14;3.50;98.00
26575;DHT22;67165;50.256;10.978;2023-02-01T04:10:39;3.50;98.00
26575;DHT22;67165;50.256;10.978;2023-02-01T04:13:05;3.50;98.00
26575;DHT22;67165;50.256;10.978;2023-02-01T04:15:31;3.50;98.00
26575;DHT22;67165;50.256;10.978;2023-02-01T04:17:56;3.50;98.00
26575;DHT22;67165;50.256;10.978;2023-02-01T04:20:22;3.50;98.00
26575;DHT22;67165;50.256;10.978;2023-02-01T04:22:47;3.50;98.00
26575;DHT22;67165;50.256;10.978;2023-02-01T04:25:13;3.50;98.00
26575;DHT22;67165;50.256;10.978;2023-02-01T04:27:39;3.60;98.00
26575;DHT22;67165;50.256;10.978;2023-02-01T04:30:05;3.50;98.00
26575;DHT22;67165;50.256;10.978;2023-02-01T04:32:35;3.50;98.00
26575;DHT22;67165;50.256;10.978;2023-02-01T04:35:01;3.60;98.00
26575;DHT22;67165;50.256;10.978;2023-02-01T04:37:26;3.50;98.00
26575;DHT22;67165;50.256;10.978;2023-02-01T04:39:52;3.50;98.00
26575;DHT22;67165;50.256;10.978;2023-02-01T04:42:18;3.50;98.00
26575;DHT22;67165;50.256;10.978;2023-02-01T04:44:43;3.50;98.00
26575;DHT22;67165;50.256;10.978;2023-02-01T04:47:09;3.60;98.00
26575;DHT22;67165;50.256;10.978;2023-02-01T04:49:35;3.50;98.00
26575;DHT22;67165;50.256;10.978;2023-02-01T04:52:00;3.50;98.00
26575;DHT22;67165;50.256;10.978;2023-02-01T04:54:26;3.50;98.00
26575;DHT22;67165;50.256;10.978;2023-02-01T04:56:51;3.40;98.00
26575;DHT22;67165;50.256;10.978;2023-02-01T04:59:17;3.40;98.00
26575;DHT22;67165;50.256;10.978;2023-02-01T05:01:43;3.30;98.00
26575;DHT22;67165;50.256;10.978;2023-02-01T05:04:08;3.40;98.00
26575;DHT22;67165;50.256;10.978;2023-02-01T05:06:34;3.40;98.00
26575;DHT22;67165;50.256;10.978;2023-02-01T05:08:59;3.40;98.00
26575;DHT22;67165;50.256;10.978;2023-02-01T05:11:25;3.40;98.00
26575;DHT22;67165;50.256;10.978;2023-02-01T05:14:09;3.40;98.00
26575;DHT22;67165;50.256;10.978;2023-02-01T05:16:35;3.40;98.00
26575;DHT22;67165;50.256;10.978;2023-02-01T05:19:01;3.40;98.00
26575;DHT22;67165;50.256;10.978;2023-02-01T05:21:26;3.40;98.00
26575;DHT22;67165;50.256;10.978;2023-02-01T05:23:52;3.40;98.00
26575;DHT22;67165;50.256;10.978;2023-02-01T05:26:39;3.40;98.00
26575;DHT22;67165;50.256;10.978;2023-02-01T05:29:06;3.40;98.00
26575;DHT22;67165;50.256;10.978;2023-02-01T05:31:32;3.40;98.00
26575;DHT22;67165;50.256;10.978;2023-02-01T05:33:58;3.40;98.00
26575;DHT22;67165;50.256;10.978;2023-02-01T05:36:23;3.30;98.00
26575;DHT22;67165;50.256;10.978;2023-02-01T05:38:49;3.40;98.00
26575;DHT22;67165;50.256;10.978;2023-02-01T05:41:14;3.40;98.00
26575;DHT22;67165;50.256;10.978;2023-02-01T05:43:40;3.40;98.00
26575;DHT22;67165;50.256;10.978;2023-02-01T05:46:05;3.40;98.00
26575;DHT22;67165;50.256;10.978;2023-02-01T05:48:31;3.40;98.00
26575;DHT22;67165;50.256;10.978;2023-02-01T05:50:57;3.40;98.00
26575;DHT22;67165;50.256;10.978;2023-02-01T05:53:22;3.40;98.00
26575;DHT22;67165;50.256;10.978;2023-02-01T05:55:48;3.30;98.00
26575;DHT22;67165;50.256;10.978;2023-02-01T05:58:14;3.40;98.00
26575;DHT22;67165;50.256;10.978;2023-02-01T06:00:39;3.40;98.00
26575;DHT22;67165;50.256;10.978;2023-02-01T06:03:05;3.40;98.00
26575;DHT22;67165;50.256;10.978;2023-02-01T06:05:31;3.40;98.00
26575;DHT22;67165;50.256;10.978;2023-02-01T06:07:57;3.30;98.00
26575;DHT22;67165;50.256;10.978;2023-02-01T06:10:23;3.40;98.00
26575;DHT22;67165;50.256;10.978;2023-02-01T06:12:49;3.30;98.00
26575;DHT22;67165;50.256;10.978;2023-02-01T06:15:14;3.40;98.00
26575;DHT22;67165;50.256;10.978;2023-02-01T06:17:44;3.40;98.00
26575;DHT22;67165;50.256;10.978;2023-02-01T06:20:13;3.40;98.00
26575;DHT22;67165;50.256;10.978;2023-02-01T06:22:39;3.50;98.00
26575;DHT22;67165;50.256;10.978;2023-02-01T06:25:07;3.50;98.00
26575;DHT22;67165;50.256;10.978;2023-02-01T06:27:33;3.50;98.00
26575;DHT22;67165;50.256;10.978;2023-02-01T06:29:58;3.50;98.00
26575;DHT22;67165;50.256;10.978;2023-02-01T06:32:24;3.50;98.00
26575;DHT22;67165;50.256;10.978;2023-02-01T06:34:50;3.50;98.00
26575;DHT22;67165;50.256;10.978;2023-02-01T06:37:20;3.50;98.00
26575;DHT22;67165;50.256;10.978;2023-02-01T06:39:46;3.40;98.00
26575;DHT22;67165;50.256;10.978;2023-02-01T06:42:12;3.40;98.00
26575;DHT22;67165;50.256;10.978;2023-02-01T06:44:37;3.40;98.00
26575;DHT22;67165;50.256;10.978;2023-02-01T06:47:04;3.40;98.00
26575;DHT22;67165;50.256;10.978;2023-02-01T06:49:29;3.30;98.00
26575;DHT22;67165;50.256;10.978;2023-02-01T06:51:55;3.30;98.00
26575;DHT22;67165;50.256;10.978;2023-02-01T06:54:21;3.20;98.00
26575;DHT22;67165;50.256;10.978;2023-02-01T06:56:46;3.10;98.00
26575;DHT22;67165;50.256;10.978;2023-02-01T06:59:12;3.00;98.00
26575;DHT22;67165;50.256;10.978;2023-02-01T07:01:38;3.00;98.00
26575;DHT22;67165;50.256;10.978;2023-02-01T07:04:04;3.00;98.00
26575;DHT22;67165;50.256;10.978;2023-02-01T07:06:30;3.00;98.00
26575;DHT22;67165;50.256;10.978;2023-02-01T07:08:58;3.00;98.00
26575;DHT22;67165;50.256;10.978;2023-02-01T07:11:25;3.10;98.00
26575;DHT22;67165;50.256;10.978;2023-02-01T07:13:53;3.20;98.00
26575;DHT22;67165;50.256;10.978;2023-02-01T07:16:19;3.20;98.00
26575;DHT22;67165;50.256;10.978;2023-02-01T07:18:45;3.20;98.00
26575;DHT22;67165;50.256;10.978;2023-02-01T07:21:11;3.30;98.00
26575;DHT22;67165;50.256;10.978;2023-02-01T07:23:37;3.30;98.00
26575;DHT22;67165;50.256;10.978;2023-02-01T07:26:05;3.30;98.00
26575;DHT22;67165;50.256;10.978;2023-02-01T07:28:33;3.30;98.00
26575;DHT22;67165;50.256;10.978;2023-02-01T07:31:07;3.20;98.00
26575;DHT22;67165;50.256;10.978;2023-02-01T07:33:33;3.30;98.00
26575;DHT22;67165;50.256;10.978;2023-02-01T07:36:01;3.30;98.00
26575;DHT22;67165;50.256;10.978;2023-02-01T07:38:27;3.40;98.00
26575;DHT22;67165;50.256;10.978;2023-02-01T07:41:02;3.40;98.00
26575;DHT22;67165;50.256;10.978;2023-02-01T07:43:28;3.40;98.00
26575;DHT22;67165;50.256;10.978;2023-02-01T07:45:55;3.50;98.00
26575;DHT22;67165;50.256;10.978;2023-02-01T07:48:21;3.50;98.00
26575;DHT22;67165;50.256;10.978;2023-02-01T07:51:00;3.60;98.00
26575;DHT22;67165;50.256;10.978;2023-02-01T07:53:27;3.60;98.00
26575;DHT22;67165;50.256;10.978;2023-02-01T07:55:53;3.60;98.00
26575;DHT22;67165;50.256;10.978;2023-02-01T07:58:22;3.70;98.00
26575;DHT22;67165;50.256;10.978;2023-02-01T08:00:48;3.70;98.00
26575;DHT22;67165;50.256;10.978;2023-02-01T08:03:32;3.70;98.00
26575;DHT22;67165;50.256;10.978;2023-02-01T08:05:58;3.70;98.00
26575;DHT22;67165;50.256;10.978;2023-02-01T08:08:24;3.80;98.00
26575;DHT22;67165;50.256;10.978;2023-02-01T08:10:49;3.80;98.00
26575;DHT22;67165;50.256;10.978;2023-02-01T08:13:16;3.80;98.00
26575;DHT22;67165;50.256;10.978;2023-02-01T08:15:41;3.90;98.00
26575;DHT22;67165;50.256;10.978;2023-02-01T08:18:07;3.90;98.00
26575;DHT22;67165;50.256;10.978;2023-02-01T08:20:33;3.90;98.00
26575;DHT22;67165;50.256;10.978;2023-02-01T08:23:01;3.90;98.00
26575;DHT22;67165;50.256;10.978;2023-02-01T08:25:27;3.90;98.00
26575;DHT22;67165;50.256;10.978;2023-02-01T08:27:53;4.00;98.00
26575;DHT22;67165;50.256;10.978;2023-02-01T08:30:20;4.00;98.00
26575;DHT22;67165;50.256;10.978;2023-02-01T08:32:46;4.00;98.00
26575;DHT22;67165;50.256;10.978;2023-02-01T08:35:11;3.90;98.00
26575;DHT22;67165;50.256;10.978;2023-02-01T08:37:37;3.90;98.00
26575;DHT22;67165;50.256;10.978;2023-02-01T08:40:04;4.00;98.00
26575;DHT22;67165;50.256;10.978;2023-02-01T08:42:30;4.00;98.00
26575;DHT22;67165;50.256;10.978;2023-02-01T08:45:15;3.90;98.00
26575;DHT22;67165;50.256;10.978;2023-02-01T08:47:40;4.00;98.00
26575;DHT22;67165;50.256;10.978;2023-02-01T08:50:06;4.00;98.00
26575;DHT22;67165;50.256;10.978;2023-02-01T08:52:32;4.00;98.00
26575;DHT22;67165;50.256;10.978;2023-02-01T08:54:58;4.00;98.00
26575;DHT22;67165;50.256;10.978;2023-02-01T08:57:23;3.90;98.00
26575;DHT22;67165;50.256;10.978;2023-02-01T08:59:49;3.90;98.00
26575;DHT22;67165;50.256;10.978;2023-02-01T09:02:16;4.00;98.00
26575;DHT22;67165;50.256;10.978;2023-02-01T09:04:42;4.10;98.00
26575;DHT22;67165;50.256;10.978;2023-02-01T09:07:11;4.10;98.00
26575;DHT22;67165;50.256;10.978;2023-02-01T09:09:38;4.00;98.00
26575;DHT22;67165;50.256;10.978;2023-02-01T09:12:04;4.00;98.00
26575;DHT22;67165;50.256;10.978;2023-02-01T09:14:30;4.10;98.00
26575;DHT22;67165;50.256;10.978;2023-02-01T09:16:56;4.10;98.00
26575;DHT22;67165;50.256;10.978;2023-02-01T09:19:21;4.10;98.00
26575;DHT22;67165;50.256;10.978;2023-02-01T09:21:47;4.20;98.00
26575;DHT22;67165;50.256;10.978;2023-02-01T09:24:13;4.30;98.00
26575;DHT22;67165;50.256;10.978;2023-02-01T09:26:39;4.40;98.00
26575;DHT22;67165;50.256;10.978;2023-02-01T09:29:05;4.40;98.00
26575;DHT22;67165;50.256;10.978;2023-02-01T09:31:40;4.40;98.00
26575;DHT22;67165;50.256;10.978;2023-02-01T09:34:06;4.50;98.00
26575;DHT22;67165;50.256;10.978;2023-02-01T09:36:32;4.60;98.00
26575;DHT22;67165;50.256;10.978;2023-02-01T09:38:59;4.60;98.00
26575;DHT22;67165;50.256;10.978;2023-02-01T09:41:32;4.60;98.00
26575;DHT22;67165;50.256;10.978;2023-02-01T09:44:08;4.60;98.00
26575;DHT22;67165;50.256;10.978;2023-02-01T09:46:35;4.60;98.00
26575;DHT22;67165;50.256;10.978;2023-02-01T09:49:04;4.70;98.00
26575;DHT22;67165;50.256;10.978;2023-02-01T09:51:37;4.70;98.00
26575;DHT22;67165;50.256;10.978;2023-02-01T09:54:14;4.80;98.00
26575;DHT22;67165;50.256;10.978;2023-02-01T09:57:04;4.80;98.00
26575;DHT22;67165;50.256;10.978;2023-02-01T09:59:41;4.80;98.00
26575;DHT22;67165;50.256;10.978;2023-02-01T10:02:15;4.80;98.00
26575;DHT22;67165;50.256;10.978;2023-02-01T10:04:42;4.80;98.00
26575;DHT22;67165;50.256;10.978;2023-02-01T10:07:56;4.80;98.00
26575;DHT22;67165;50.256;10.978;2023-02-01T10:10:40;4.90;98.00
26575;DHT22;67165;50.256;10.978;2023-02-01T10:27:06;5.10;98.00
26575;DHT22;67165;50.256;10.978;2023-02-01T10:29:39;5.10;98.00
26575;DHT22;67165;50.256;10.978;2023-02-01T10:32:29;5.00;98.00
26575;DHT22;67165;50.256;10.978;2023-02-01T10:35:01;5.10;98.00
26575;DHT22;67165;50.256;10.978;2023-02-01T10:37:32;5.00;98.00
26575;DHT22;67165;50.256;10.978;2023-02-01T10:42:45;5.10;98.00
26575;DHT22;67165;50.256;10.978;2023-02-01T10:45:20;5.10;98.00
26575;DHT22;67165;50.256;10.978;2023-02-01T10:47:49;5.20;98.00
26575;DHT22;67165;50.256;10.978;2023-02-01T10:55:39;5.10;98.00
26575;DHT22;67165;50.256;10.978;2023-02-01T10:58:14;5.00;98.00
26575;DHT22;67165;50.256;10.978;2023-02-01T11:00:48;5.00;98.00
26575;DHT22;67165;50.256;10.978;2023-02-01T11:08:44;5.10;98.00
26575;DHT22;67165;50.256;10.978;2023-02-01T11:11:10;5.10;98.00
26575;DHT22;67165;50.256;10.978;2023-02-01T11:13:38;5.20;98.00
26575;DHT22;67165;50.256;10.978;2023-02-01T11:16:05;5.30;98.00
26575;DHT22;67165;50.256;10.978;2023-02-01T11:18:35;5.30;98.00
26575;DHT22;67165;50.256;10.978;2023-02-01T11:21:01;5.30;98.00
26575;DHT22;67165;50.256;10.978;2023-02-01T11:23:29;5.40;98.00
26575;DHT22;67165;50.256;10.978;2023-02-01T11:25:59;5.40;98.00
26575;DHT22;67165;50.256;10.978;2023-02-01T11:28:29;5.30;98.00
26575;DHT22;67165;50.256;10.978;2023-02-01T11:31:02;5.20;98.00
26575;DHT22;67165;50.256;10.978;2023-02-01T11:33:34;5.20;98.00
26575;DHT22;67165;50.256;10.978;2023-02-01T11:36:18;5.20;98.00
26575;DHT22;67165;50.256;10.978;2023-02-01T11:49:43;5.10;98.00
26575;DHT22;67165;50.256;10.978;2023-02-01T11:52:15;5.10;98.00
26575;DHT22;67165;50.256;10.978;2023-02-01T12:00:30;5.00;98.00
26575;DHT22;67165;50.256;10.978;2023-02-01T12:06:18;4.90;98.00
26575;DHT22;67165;50.256;10.978;2023-02-01T12:09:11;4.90;98.00
26575;DHT22;67165;50.256;10.978;2023-02-01T12:23:06;5.00;98.00
26575;DHT22;67165;50.256;10.978;2023-02-01T12:28:36;5.00;98.00
26575;DHT22;67165;50.256;10.978;2023-02-01T12:36:51;5.00;98.00
26575;DHT22;67165;50.256;10.978;2023-02-01T12:42:25;5.10;98.00
26575;DHT22;67165;50.256;10.978;2023-02-01T12:47:38;5.20;98.00
26575;DHT22;67165;50.256;10.978;2023-02-01T12:52:46;5.20;98.00
26575;DHT22;67165;50.256;10.978;2023-02-01T12:58:08;5.20;98.00
26575;DHT22;67165;50.256;10.978;2023-02-01T13:00:42;5.20;98.00
26575;DHT22;67165;50.256;10.978;2023-02-01T13:03:34;5.20;98.00
26575;DHT22;67165;50.256;10.978;2023-02-01T13:11:09;5.20;98.00
26575;DHT22;67165;50.256;10.978;2023-02-01T13:14:00;5.20;98.00
26575;DHT22;67165;50.256;10.978;2023-02-01T13:21:40;5.30;98.00
26575;DHT22;67165;50.256;10.978;2023-02-01T13:26:48;5.40;98.00
26575;DHT22;67165;50.256;10.978;2023-02-01T13:29:15;5.40;98.00
26575;DHT22;67165;50.256;10.978;2023-02-01T13:32:21;5.40;98.00
26575;DHT22;67165;50.256;10.978;2023-02-01T13:38:22;5.40;98.00
26575;DHT22;67165;50.256;10.978;2023-02-01T13:43:34;5.40;98.00
26575;DHT22;67165;50.256;10.978;2023-02-01T13:46:08;5.30;98.00
26575;DHT22;67165;50.256;10.978;2023-02-01T13:48:45;5.30;98.00
26575;DHT22;67165;50.256;10.978;2023-02-01T13:51:12;5.30;98.00
26575;DHT22;67165;50.256;10.978;2023-02-01T13:53:47;5.40;98.00
26575;DHT22;67165;50.256;10.978;2023-02-01T13:56:19;5.40;98.00
26575;DHT22;67165;50.256;10.978;2023-02-01T13:58:47;5.30;98.00
26575;DHT22;67165;50.256;10.978;2023-02-01T14:03:56;5.30;98.00
26575;DHT22;67165;50.256;10.978;2023-02-01T14:11:54;5.20;98.00
26575;DHT22;67165;50.256;10.978;2023-02-01T14:19:24;5.20;98.00
26575;DHT22;67165;50.256;10.978;2023-02-01T14:21:52;5.20;98.00
26575;DHT22;67165;50.256;10.978;2023-02-01T14:26:52;5.40;98.00
26575;DHT22;67165;50.256;10.978;2023-02-01T14:29:37;5.30;98.00
26575;DHT22;67165;50.256;10.978;2023-02-01T14:37:28;5.30;98.00
26575;DHT22;67165;50.256;10.978;2023-02-01T14:42:46;5.20;98.00
26575;DHT22;67165;50.256;10.978;2023-02-01T14:55:44;5.20;98.00
26575;DHT22;67165;50.256;10.978;2023-02-01T15:09:16;5.10;98.00
26575;DHT22;67165;50.256;10.978;2023-02-01T15:14:33;5.00;98.00
26575;DHT22;67165;50.256;10.978;2023-02-01T15:16:59;5.00;98.00
26575;DHT22;67165;50.256;10.978;2023-02-01T15:19:27;5.00;98.00
26575;DHT22;67165;50.256;10.978;2023-02-01T15:21:55;5.00;98.00
26575;DHT22;67165;50.256;10.978;2023-02-01T15:24:29;5.00;98.00
26575;DHT22;67165;50.256;10.978;2023-02-01T15:26:56;5.00;98.00
26575;DHT22;67165;50.256;10.978;2023-02-01T15:29:27;5.00;98.00
26575;DHT22;67165;50.256;10.978;2023-02-01T15:31:57;5.00;98.00
26575;DHT22;67165;50.256;10.978;2023-02-01T15:34:23;5.00;98.00
26575;DHT22;67165;50.256;10.978;2023-02-01T15:36:49;5.00;98.00
26575;DHT22;67165;50.256;10.978;2023-02-01T15:39:24;5.00;98.00
26575;DHT22;67165;50.256;10.978;2023-02-01T15:41:58;5.00;98.00
26575;DHT22;67165;50.256;10.978;2023-02-01T15:44:40;5.00;98.00
26575;DHT22;67165;50.256;10.978;2023-02-01T15:47:27;5.00;98.00
26575;DHT22;67165;50.256;10.978;2023-02-01T15:49:57;5.00;98.00
26575;DHT22;67165;50.256;10.978;2023-02-01T15:52:33;5.00;98.00
26575;DHT22;67165;50.256;10.978;2023-02-01T15:55:02;5.00;98.00
26575;DHT22;67165;50.256;10.978;2023-02-01T15:57:34;5.00;98.00
26575;DHT22;67165;50.256;10.978;2023-02-01T16:00:07;5.00;98.00
26575;DHT22;67165;50.256;10.978;2023-02-01T16:08:15;5.00;98.00
26575;DHT22;67165;50.256;10.978;2023-02-01T16:10:44;5.00;98.00
26575;DHT22;67165;50.256;10.978;2023-02-01T16:13:11;5.00;98.00
26575;DHT22;67165;50.256;10.978;2023-02-01T16:15:36;5.00;98.00
26575;DHT22;67165;50.256;10.978;2023-02-01T16:18:02;5.00;98.00
26575;DHT22;67165;50.256;10.978;2023-02-01T16:20:28;4.90;98.00
26575;DHT22;67165;50.256;10.978;2023-02-01T16:22:55;4.90;98.00
26575;DHT22;67165;50.256;10.978;2023-02-01T16:25:21;5.00;98.00
26575;DHT22;67165;50.256;10.978;2023-02-01T16:27:47;4.90;98.00
26575;DHT22;67165;50.256;10.978;2023-02-01T16:30:13;4.90;98.00
26575;DHT22;67165;50.256;10.978;2023-02-01T16:32:39;4.90;98.00
26575;DHT22;67165;50.256;10.978;2023-02-01T16:35:11;4.90;98.00
26575;DHT22;67165;50.256;10.978;2023-02-01T16:37:39;4.90;98.00
26575;DHT22;67165;50.256;10.978;2023-02-01T16:40:05;4.90;98.00
26575;DHT22;67165;50.256;10.978;2023-02-01T16:42:30;4.90;98.00
26575;DHT22;67165;50.256;10.978;2023-02-01T16:44:56;4.90;98.00
26575;DHT22;67165;50.256;10.978;2023-02-01T16:47:22;4.80;98.00
26575;DHT22;67165;50.256;10.978;2023-02-01T16:49:48;4.80;98.00
26575;DHT22;67165;50.256;10.978;2023-02-01T16:52:17;4.90;98.00
26575;DHT22;67165;50.256;10.978;2023-02-01T16:54:44;4.90;98.00
26575;DHT22;67165;50.256;10.978;2023-02-01T16:57:15;4.90;98.00
26575;DHT22;67165;50.256;10.978;2023-02-01T16:59:41;4.90;98.00
26575;DHT22;67165;50.256;10.978;2023-02-01T17:02:16;4.90;98.00
26575;DHT22;67165;50.256;10.978;2023-02-01T17:04:45;4.90;98.00
26575;DHT22;67165;50.256;10.978;2023-02-01T17:07:18;4.90;98.00
26575;DHT22;67165;50.256;10.978;2023-02-01T17:09:44;4.90;98.00
26575;DHT22;67165;50.256;10.978;2023-02-01T17:12:30;4.90;98.00
26575;DHT22;67165;50.256;10.978;2023-02-01T17:14:58;4.90;98.00
26575;DHT22;67165;50.256;10.978;2023-02-01T17:17:37;4.90;98.00
26575;DHT22;67165;50.256;10.978;2023-02-01T17:20:04;4.90;98.00
26575;DHT22;67165;50.256;10.978;2023-02-01T17:22:31;4.80;98.00
26575;DHT22;67165;50.256;10.978;2023-02-01T17:24:57;4.90;98.00
26575;DHT22;67165;50.256;10.978;2023-02-01T17:27:23;4.90;98.00
26575;DHT22;67165;50.256;10.978;2023-02-01T17:29:49;4.80;98.00
26575;DHT22;67165;50.256;10.978;2023-02-01T17:32:19;4.70;98.00
26575;DHT22;67165;50.256;10.978;2023-02-01T17:34:45;4.70;98.00
26575;DHT22;67165;50.256;10.978;2023-02-01T17:37:32;4.70;98.00
26575;DHT22;67165;50.256;10.978;2023-02-01T17:39:59;4.70;98.00
26575;DHT22;67165;50.256;10.978;2023-02-01T17:42:27;4.70;98.00
26575;DHT22;67165;50.256;10.978;2023-02-01T17:44:58;4.70;98.00
26575;DHT22;67165;50.256;10.978;2023-02-01T17:47:25;4.70;98.00
26575;DHT22;67165;50.256;10.978;2023-02-01T17:49:51;4.70;98.00
26575;DHT22;67165;50.256;10.978;2023-02-01T17:52:22;4.70;98.00
26575;DHT22;67165;50.256;10.978;2023-02-01T17:54:48;4.70;98.00
26575;DHT22;67165;50.256;10.978;2023-02-01T17:57:15;4.70;98.00
26575;DHT22;67165;50.256;10.978;2023-02-01T17:59:41;4.70;98.00
26575;DHT22;67165;50.256;10.978;2023-02-01T18:02:19;4.70;98.00
26575;DHT22;67165;50.256;10.978;2023-02-01T18:04:45;4.70;98.00
26575;DHT22;67165;50.256;10.978;2023-02-01T18:07:10;4.80;98.00
26575;DHT22;67165;50.256;10.978;2023-02-01T18:09:36;4.70;98.00
26575;DHT22;67165;50.256;10.978;2023-02-01T18:12:03;4.80;98.00
26575;DHT22;67165;50.256;10.978;2023-02-01T18:14:29;4.70;98.00
26575;DHT22;67165;50.256;10.978;2023-02-01T18:16:55;4.80;98.00
26575;DHT22;67165;50.256;10.978;2023-02-01T18:19:20;4.80;98.00
26575;DHT22;67165;50.256;10.978;2023-02-01T18:21:46;4.80;98.00
26575;DHT22;67165;50.256;10.978;2023-02-01T18:24:13;4.80;98.00
26575;DHT22;67165;50.256;10.978;2023-02-01T18:26:39;4.80;98.00
26575;DHT22;67165;50.256;10.978;2023-02-01T18:29:05;4.90;98.00
26575;DHT22;67165;50.256;10.978;2023-02-01T18:31:31;4.80;98.00
26575;DHT22;67165;50.256;10.978;2023-02-01T18:33:59;4.80;98.00
26575;DHT22;67165;50.256;10.978;2023-02-01T18:36:25;4.80;98.00
26575;DHT22;67165;50.256;10.978;2023-02-01T18:38:51;4.80;98.00
26575;DHT22;67165;50.256;10.978;2023-02-01T18:41:21;4.80;98.00
26575;DHT22;67165;50.256;10.978;2023-02-01T18:43:49;4.80;98.00
26575;DHT22;67165;50.256;10.978;2023-02-01T18:46:15;4.80;98.00
26575;DHT22;67165;50.256;10.978;2023-02-01T18:48:42;4.80;98.00
26575;DHT22;67165;50.256;10.978;2023-02-01T18:51:12;4.80;98.00
26575;DHT22;67165;50.256;10.978;2023-02-01T18:53:38;4.90;98.00
26575;DHT22;67165;50.256;10.978;2023-02-01T18:56:04;4.80;98.00
26575;DHT22;67165;50.256;10.978;2023-02-01T18:58:30;4.80;98.00
26575;DHT22;67165;50.256;10.978;2023-02-01T19:00:58;4.90;98.00
26575;DHT22;67165;50.256;10.978;2023-02-01T19:03:28;4.90;98.00
26575;DHT22;67165;50.256;10.978;2023-02-01T19:05:55;4.90;98.00
26575;DHT22;67165;50.256;10.978;2023-02-01T19:08:21;4.90;98.00
26575;DHT22;67165;50.256;10.978;2023-02-01T19:10:49;4.90;98.00
26575;DHT22;67165;50.256;10.978;2023-02-01T19:13:14;4.90;98.00
26575;DHT22;67165;50.256;10.978;2023-02-01T19:15:41;4.90;98.00
26575;DHT22;67165;50.256;10.978;2023-02-01T19:18:08;4.90;98.00
26575;DHT22;67165;50.256;10.978;2023-02-01T19:20:37;4.90;98.00
26575;DHT22;67165;50.256;10.978;2023-02-01T19:23:06;4.90;98.00
26575;DHT22;67165;50.256;10.978;2023-02-01T19:25:31;4.90;98.00
26575;DHT22;67165;50.256;10.978;2023-02-01T19:27:57;4.90;98.00
26575;DHT22;67165;50.256;10.978;2023-02-01T19:30:23;4.90;98.00
26575;DHT22;67165;50.256;10.978;2023-02-01T19:32:50;4.90;98.00
26575;DHT22;67165;50.256;10.978;2023-02-01T19:35:17;4.80;98.00
26575;DHT22;67165;50.256;10.978;2023-02-01T19:37:45;4.70;98.00
26575;DHT22;67165;50.256;10.978;2023-02-01T19:40:13;4.70;98.00
26575;DHT22;67165;50.256;10.978;2023-02-01T19:42:39;4.70;98.00
26575;DHT22;67165;50.256;10.978;2023-02-01T19:45:06;4.60;98.00
26575;DHT22;67165;50.256;10.978;2023-02-01T19:47:32;4.60;98.00
26575;DHT22;67165;50.256;10.978;2023-02-01T19:49:58;4.50;98.00
26575;DHT22;67165;50.256;10.978;2023-02-01T19:52:23;4.60;98.00
26575;DHT22;67165;50.256;10.978;2023-02-01T19:54:49;4.60;98.00
26575;DHT22;67165;50.256;10.978;2023-02-01T19:57:15;4.50;98.00
26575;DHT22;67165;50.256;10.978;2023-02-01T19:59:40;4.50;98.00
26575;DHT22;67165;50.256;10.978;2023-02-01T20:02:08;4.50;98.00
26575;DHT22;67165;50.256;10.978;2023-02-01T20:04:34;4.50;98.00
26575;DHT22;67165;50.256;10.978;2023-02-01T20:07:00;4.40;98.00
26575;DHT22;67165;50.256;10.978;2023-02-01T20:09:27;4.40;98.00
26575;DHT22;67165;50.256;10.978;2023-02-01T20:11:56;4.40;98.00
26575;DHT22;67165;50.256;10.978;2023-02-01T20:14:23;4.40;98.00
26575;DHT22;67165;50.256;10.978;2023-02-01T20:16:51;4.40;98.00
26575;DHT22;67165;50.256;10.978;2023-02-01T20:19:17;4.30;98.00
26575;DHT22;67165;50.256;10.978;2023-02-01T20:21:43;4.30;98.00
26575;DHT22;67165;50.256;10.978;2023-02-01T20:24:12;4.30;98.00
26575;DHT22;67165;50.256;10.978;2023-02-01T20:26:38;4.30;98.00
26575;DHT22;67165;50.256;10.978;2023-02-01T20:29:04;4.30;98.00
26575;DHT22;67165;50.256;10.978;2023-02-01T20:31:30;4.20;98.00
26575;DHT22;67165;50.256;10.978;2023-02-01T20:33:56;4.30;98.00
26575;DHT22;67165;50.256;10.978;2023-02-01T20:36:23;4.30;98.00
26575;DHT22;67165;50.256;10.978;2023-02-01T20:38:51;4.30;98.00
26575;DHT22;67165;50.256;10.978;2023-02-01T20:41:16;4.30;98.00
26575;DHT22;67165;50.256;10.978;2023-02-01T20:43:42;4.20;98.00
26575;DHT22;67165;50.256;10.978;2023-02-01T20:46:08;4.20;98.00
26575;DHT22;67165;50.256;10.978;2023-02-01T20:48:34;4.20;98.00
26575;DHT22;67165;50.256;10.978;2023-02-01T20:51:00;4.20;98.00
26575;DHT22;67165;50.256;10.978;2023-02-01T20:53:26;4.20;98.00
26575;DHT22;67165;50.256;10.978;2023-02-01T20:55:57;4.20;98.00
26575;DHT22;67165;50.256;10.978;2023-02-01T20:58:23;4.20;98.00
26575;DHT22;67165;50.256;10.978;2023-02-01T21:00:49;4.20;98.00
26575;DHT22;67165;50.256;10.978;2023-02-01T21:03:15;4.20;98.00
26575;DHT22;67165;50.256;10.978;2023-02-01T21:05:46;4.20;98.00
26575;DHT22;67165;50.256;10.978;2023-02-01T21:08:12;4.20;98.00